Coahoma, MS (38617)

2:43 PM CDT on August 03, 2015 (GMT -0500)
Fletcher | | Change Station
CLOSE
Current Station
Airport
Location: Clarksdale Fletcher Field Air,
Elevation: 174 ft
Nearby Weather Stations

Elev 174 ft 34.30 °N, 90.51 °W | Updated 8 minutes ago

Clear
Clear
95 °F
Feels Like 101 °F
N
5
Wind Variable Wind from WSW

Today
High -- | Low -- °F
--% Chance of Precip.
Yesterday
High -- | Low -- °F
Precip. -- in
6:13 AM 8:01 PM
Waning Gibbous, 84% visible
Pressure 29.94 in
Visibility 10.0 miles
Clouds Scattered Clouds 6000 ft
Scattered Clouds 8500 ft
Heat Index 101 °F
Dew Point 70 °F
Humidity 44%
Rainfall 0.00 in
Snow Depth Not available.
UV 8 out of 12
Pollen 6.80 out of 12
Air Quality Not available.
Flu Activity Not available.
METAR KCKM 031935Z AUTO 24004KT 10SM SCT060 SCT085 35/21 A2994 RMK AO1

More Conditions Fewer Conditions

Pressure 29.94 in
Visibility 10.0 miles
Clouds Scattered Clouds 6000 ft
Scattered Clouds 8500 ft
Heat Index 101 °F
Dew Point 70 °F
Humidity 44%
Rainfall 0.00 in
Snow Depth Not available.
UV 8 out of 12
Pollen 6.80 out of 12
Air Quality Not available.
Flu Activity Not available.
METAR KCKM 031935Z AUTO 24004KT 10SM SCT060 SCT085 35/21 A2994 RMK AO1

More Conditions Fewer Conditions

10-Day Weather Forecast

×

Almanac

Astronomy

Aug. 03, 2015 Rise Set
Actual Time
Civil Twilight
Nautical Twilight
Astronomical Twilight
Moon
Length of Visible Light
Length of Day
Tomorrow will be .
, % of the Moon is Illuminated

Today's Extremes

State Highs State Lows

Community

WunderPhotos

Upload Photos

1,843,717 photos uploaded!

WunderBlogs® & News

Nearby

Air Quality

  Air Quality AQ Index Pollutant
Not available.

Snow Depth

Station Depth Elevation

Earthquake Activity

City Distance Mag. Time & Date
Minimum magnitude displayed is 2.5.

Coastal Water Temperatures

Place Temperature

Stations

Nearby Weather Stations

Station Location Temp. Windchill Dew Point Humidity Wind Precip. Elev Updated Type